Latest Weather Observations for Flinders Reef

IDQ60801

Issued at 8:02 am EST Saturday 29 August 2015 (issued every 30 minutes, with the page automatically refreshed every 10 minutes)

About weather observations | Map of weather stations | Latest weather observations for QLD | Other Formats
Station Details ID: 200783 Name: FLINDERS REEF Lat: -17.72 Lon: 148.45 Height: 2.6 m
Data from the previous 72 hours. | See also: Recent months at Flinders Reef
Date/Time
EST
Temp
°C
App
Temp
°C
Dew
Point
Rel
Hum
%
Delta-T
°C
Wind Press
QNH
hPa
Press
MSL
hPa
Rain
since 9 am
mm
Dir
 
Spd
km/h
Gust
km/h
Spd
kts
Gust
kts
29/08:00am - - - - - E 28 32 15 17 1019.0 - -
29/07:30am - - - - - E 26 30 14 16 1018.6 - -
29/07:24am - - - - - E 26 - 14 - - 1018.4 -
29/07:00am - - - - - E 28 32 15 17 1018.2 - -
29/06:30am - - - - - E 28 33 15 18 1017.7 - -
29/06:24am - - - - - E 30 - 16 - - 1017.6 -
29/06:00am - - - - - E 30 35 16 19 1017.4 - -
29/05:30am - - - - - E 30 35 16 19 1017.1 - -
29/05:24am - - - - - E 32 - 17 - - 1016.9 -
29/05:00am - - - - - E 28 33 15 18 1016.7 - -
29/04:30am - - - - - E 30 33 16 18 1016.6 - -
29/04:24am - - - - - E 30 - 16 - - 1016.5 -
29/04:00am - - - - - E 32 35 17 19 1016.6 - -
29/03:30am - - - - - E 30 35 16 19 1016.7 - -
29/03:24am - - - - - E 32 - 17 - - 1016.6 -
29/03:00am - - - - - E 32 37 17 20 1016.8 - -
29/02:30am - - - - - E 30 35 16 19 1017.2 - -
29/02:24am - - - - - E 28 - 15 - - 1017.1 -
29/02:00am - - - - - E 32 35 17 19 1017.4 - -
29/01:30am - - - - - E 30 35 16 19 1018.0 - -
29/01:24am - - - - - E 30 - 16 - - 1017.9 -
29/01:00am - - - - - E 30 35 16 19 1018.3 - -
29/12:30am - - - - - E 28 32 15 17 1018.7 - -
29/12:24am - - - - - E 28 - 15 - - 1018.6 -
29/12:00am - - - - - E 26 32 14 17 1018.7 - -
 
Date/Time
EST
Temp
°C
App
Temp
°C
Dew
Point
Rel
Hum
%
Delta-T
°C
Wind Press
QNH
hPa
Press
MSL
hPa
Rain
since 9 am
mm
Dir
 
Spd
km/h
Gust
km/h
Spd
kts
Gust
kts
28/11:30pm - - - - - E 26 30 14 16 1018.8 - -
28/11:24pm - - - - - E 24 - 13 - - 1018.7 -
28/11:00pm - - - - - E 28 32 15 17 1019.0 - -
28/10:30pm - - - - - E 26 30 14 16 1019.2 - -
28/10:24pm - - - - - E 26 - 14 - - 1019.1 -
28/10:00pm - - - - - ESE 26 30 14 16 1019.3 - -
28/09:30pm - - - - - ESE 24 28 13 15 1019.3 - -
28/09:24pm - - - - - ESE 24 - 13 - - 1019.1 -
28/09:00pm - - - - - ESE 24 28 13 15 1019.1 - -
28/08:30pm - - - - - ESE 24 28 13 15 1019.0 - -
28/08:24pm - - - - - ESE 26 - 14 - - 1018.9 -
28/08:00pm - - - - - ESE 24 30 13 16 1018.8 - -
28/07:30pm - - - - - ESE 26 30 14 16 1018.3 - -
28/07:24pm - - - - - ESE 26 - 14 - - 1018.2 -
28/07:00pm - - - - - ESE 24 30 13 16 1017.9 - -
28/06:30pm - - - - - E 24 28 13 15 1017.4 - -
28/06:24pm - - - - - E 24 - 13 - - 1017.2 -
28/06:00pm - - - - - E 22 28 12 15 1017.1 - -
28/05:30pm - - - - - E 24 32 13 17 1016.8 - -
28/05:24pm - - - - - ESE 22 - 12 - - 1016.6 -
28/05:00pm - - - - - E 24 26 13 14 1016.5 - -
28/04:30pm - - - - - E 24 28 13 15 1016.2 - -
28/04:24pm - - - - - E 24 - 13 - - 1016.1 -
28/04:00pm - - - - - E 24 30 13 16 1015.9 - -
28/03:30pm - - - - - ESE 26 30 14 16 1015.8 - -
28/03:24pm - - - - - ESE 26 - 14 - - 1015.8 -
28/03:00pm - - - - - E 26 30 14 16 1016.0 - -
28/02:30pm - - - - - E 26 30 14 16 1016.1 - -
28/02:24pm - - - - - E 24 - 13 - - 1016.1 -
28/02:00pm - - - - - E 26 32 14 17 1016.5 - -
28/01:30pm - - - - - ESE 26 30 14 16 1017.0 - -
28/01:24pm - - - - - ESE 26 - 14 - - 1017.0 -
28/01:00pm - - - - - ESE 26 30 14 16 1017.4 - -
28/12:30pm - - - - - E 28 32 15 17 1017.9 - -
28/12:24pm - - - - - E 28 - 15 - - 1017.9 -
28/12:00pm - - - - - E 30 33 16 18 1018.4 - -
28/11:30am - - - - - ESE 30 35 16 19 1018.8 - -
28/11:24am - - - - - ESE 28 - 15 - - 1018.7 -
28/11:00am - - - - - E 28 33 15 18 1019.2 - -
28/10:30am - - - - - ESE 26 30 14 16 1019.4 - -
28/10:24am - - - - - ESE 28 - 15 - - 1019.3 -
28/10:00am - - - - - ESE 28 32 15 17 1019.6 - -
28/09:30am - - - - - ESE 28 33 15 18 1019.6 - -
28/09:24am - - - - - ESE 28 - 15 - - 1019.5 -
28/09:00am - - - - - ESE 28 32 15 17 1019.5 - -
28/08:30am - - - - - ESE 28 33 15 18 1019.3 - -
28/08:24am - - - - - ESE 28 - 15 - - 1019.0 -
28/08:00am - - - - - ESE 28 32 15 17 1018.9 - -
28/07:30am - - - - - ESE 26 30 14 16 1018.7 - -
28/07:24am - - - - - ESE 26 - 14 - - 1018.5 -
28/07:00am - - - - - ESE 22 28 12 15 1018.4 - -
28/06:30am - - - - - ESE 28 32 15 17 1018.1 - -
28/06:24am - - - - - ESE 28 - 15 - - 1017.9 -
28/06:00am - - - - - ESE 30 33 16 18 1017.7 - -
28/05:30am - - - - - ESE 26 30 14 16 1017.4 - -
28/05:24am - - - - - ESE 28 - 15 - - 1017.3 -
28/05:00am - - - - - E 26 32 14 17 1017.3 - -
28/04:30am - - - - - E 26 30 14 16 1017.1 - -
28/04:24am - - - - - E 26 - 14 - - 1017.0 -
28/04:00am - - - - - E 26 30 14 16 1017.1 - -
28/03:30am - - - - - E 28 32 15 17 1017.1 - -
28/03:24am - - - - - E 28 - 15 - - 1017.0 -
28/03:00am - - - - - E 32 35 17 19 1017.1 - -
28/02:30am - - - - - E 32 35 17 19 1017.1 - -
28/02:24am - - - - - E 28 - 15 - - 1017.2 -
28/02:00am - - - - - ESE 30 39 16 21 1017.7 - -
28/01:30am - - - - - ESE 24 30 13 16 1018.0 - -
28/01:24am - - - - - ESE 26 - 14 - - 1017.9 -
28/01:00am - - - - - ESE 28 32 15 17 1018.2 - -
28/12:30am - - - - - ESE 28 33 15 18 1018.5 - -
28/12:24am - - - - - ESE 28 - 15 - - 1018.4 -
28/12:00am - - - - - E 28 33 15 18 1018.8 - -
 
Date/Time
EST
Temp
°C
App
Temp
°C
Dew
Point
Rel
Hum
%
Delta-T
°C
Wind Press
QNH
hPa
Press
MSL
hPa
Rain
since 9 am
mm
Dir
 
Spd
km/h
Gust
km/h
Spd
kts
Gust
kts
27/11:30pm - - - - - E 30 35 16 19 1019.0 - -
27/11:24pm - - - - - ESE 30 - 16 - - 1018.9 -
27/11:00pm - - - - - E 30 33 16 18 1019.1 - -
27/10:30pm - - - - - ESE 30 33 16 18 1019.1 - -
27/10:24pm - - - - - ESE 30 - 16 - - 1019.1 -
27/10:00pm - - - - - ESE 30 33 16 18 1019.3 - -
27/09:30pm - - - - - ESE 30 35 16 19 1019.4 - -
27/09:24pm - - - - - ESE 30 - 16 - - 1019.3 -
27/09:00pm - - - - - ESE 28 32 15 17 1019.4 - -
27/08:30pm - - - - - ESE 28 33 15 18 1019.1 - -
27/08:24pm - - - - - ESE 30 - 16 - - 1018.9 -
27/08:00pm - - - - - ESE 30 33 16 18 1018.8 - -
27/07:30pm - - - - - ESE 28 33 15 18 1018.5 - -
27/07:24pm - - - - - ESE 28 - 15 - - 1018.4 -
27/07:00pm - - - - - ESE 30 32 16 17 1018.1 - -
27/06:30pm - - - - - ESE 28 33 15 18 1017.6 - -
27/06:24pm - - - - - ESE 28 - 15 - - 1017.4 -
27/06:00pm - - - - - ESE 28 32 15 17 1017.3 - -
27/05:30pm - - - - - ESE 30 33 16 18 1017.0 - -
27/05:24pm - - - - - ESE 28 - 15 - - 1016.9 -
27/05:00pm - - - - - ESE 26 30 14 16 1016.8 - -
27/04:30pm - - - - - ESE 28 32 15 17 1016.5 - -
27/04:24pm - - - - - ESE 28 - 15 - - 1016.4 -
27/04:00pm - - - - - ESE 28 33 15 18 1016.3 - -
27/03:30pm - - - - - ESE 26 30 14 16 1016.3 - -
27/03:24pm - - - - - ESE 26 - 14 - - 1016.2 -
27/03:00pm - - - - - ESE 28 30 15 16 1016.4 - -
27/02:30pm - - - - - ESE 26 32 14 17 1016.7 - -
27/02:24pm - - - - - ESE 26 - 14 - - 1016.6 -
27/02:00pm - - - - - ESE 28 32 15 17 1017.0 - -
27/01:30pm - - - - - ESE 28 32 15 17 1017.5 - -
27/01:24pm - - - - - ESE 26 - 14 - - 1017.5 -
27/01:00pm - - - - - E 26 30 14 16 1017.9 - -
27/12:30pm - - - - - E 28 32 15 17 1018.1 - -
27/12:24pm - - - - - E 26 - 14 - - 1018.0 -
27/12:00pm - - - - - E 26 32 14 17 1018.4 - -
27/11:30am - - - - - E 28 33 15 18 1018.8 - -
27/11:24am - - - - - E 28 - 15 - - 1018.8 -
27/11:00am - - - - - E 28 33 15 18 1019.0 - -
27/10:30am - - - - - E 32 35 17 19 1019.1 - -
27/10:24am - - - - - E 30 - 16 - - 1019.0 -
27/10:00am - - - - - E 28 33 15 18 1019.2 - -
27/09:30am - - - - - E 28 32 15 17 1019.3 - -
27/09:24am - - - - - E 28 - 15 - - 1019.2 -
27/09:00am - - - - - E 32 35 17 19 1019.4 - -
27/08:30am - - - - - ESE 30 35 16 19 1019.1 - -
27/08:24am - - - - - ESE 30 - 16 - - 1019.0 -
27/08:00am - - - - - E 30 37 16 20 1018.9 - -
27/07:30am - - - - - ESE 30 35 16 19 1018.7 - -
27/07:24am - - - - - ESE 30 - 16 - - 1018.5 -
27/07:00am - - - - - ESE 30 35 16 19 1018.4 - -
27/06:30am - - - - - ESE 30 33 16 18 1018.2 - -
27/06:24am - - - - - ESE 28 - 15 - - 1018.0 -
27/06:00am - - - - - ESE 30 35 16 19 1017.9 - -
27/05:30am - - - - - ESE 33 37 18 20 1017.5 - -
27/05:24am - - - - - ESE 33 - 18 - - 1017.4 -
27/05:00am - - - - - ESE 30 35 16 19 1017.3 - -
27/04:30am - - - - - E 30 32 16 17 1017.2 - -
27/04:24am - - - - - ESE 30 - 16 - - 1017.0 -
27/04:00am - - - - - E 30 35 16 19 1017.0 - -
27/03:30am - - - - - ESE 30 35 16 19 1017.1 - -
27/03:24am - - - - - ESE 30 - 16 - - 1017.0 -
27/03:00am - - - - - ESE 28 32 15 17 1017.2 - -
27/02:30am - - - - - ESE 26 30 14 16 1017.5 - -
27/02:24am - - - - - ESE 26 - 14 - - 1017.4 -
27/02:00am - - - - - ESE 26 32 14 17 1017.7 - -
27/01:30am - - - - - ESE 24 32 13 17 1018.0 - -
27/01:24am - - - - - E 26 - 14 - - 1017.9 -
27/01:00am - - - - - E 30 32 16 17 1018.2 - -
27/12:30am - - - - - E 28 33 15 18 1018.6 - -
27/12:24am - - - - - E 30 - 16 - - 1018.5 -
27/12:00am - - - - - E 28 32 15 17 1018.8 - -
 
Date/Time
EST
Temp
°C
App
Temp
°C
Dew
Point
Rel
Hum
%
Delta-T
°C
Wind Press
QNH
hPa
Press
MSL
hPa
Rain
since 9 am
mm
Dir
 
Spd
km/h
Gust
km/h
Spd
kts
Gust
kts
26/11:30pm - - - - - ESE 30 35 16 19 1019.0 - -
26/11:24pm - - - - - ESE 30 - 16 - - 1018.9 -
26/11:00pm - - - - - ESE 26 30 14 16 1019.3 - -
26/10:30pm - - - - - E 30 33 16 18 1019.4 - -
26/10:24pm - - - - - E 28 - 15 - - 1019.3 -
26/10:00pm - - - - - E 22 26 12 14 1019.5 - -
26/09:30pm - - - - - E 24 28 13 15 1019.5 - -
26/09:24pm - - - - - E 24 - 13 - - 1019.4 -
26/09:00pm - - - - - E 24 28 13 15 1019.3 - -
26/08:30pm - - - - - E 26 30 14 16 1019.1 - -
26/08:24pm - - - - - E 26 - 14 - - 1019.0 -
26/08:00pm - - - - - E 26 30 14 16 1019.0 - -
26/07:30pm - - - - - E 26 32 14 17 1018.7 - -
26/07:24pm - - - - - E 28 - 15 - - 1018.5 -
26/07:00pm - - - - - E 24 30 13 16 1018.4 - -
26/06:30pm - - - - - E 24 28 13 15 1018.1 - -
26/06:24pm - - - - - E 24 - 13 - - 1017.9 -
26/06:00pm - - - - - E 24 28 13 15 1017.7 - -
26/05:30pm - - - - - ESE 24 28 13 15 1017.5 - -
26/05:24pm - - - - - ESE 24 - 13 - - 1017.4 -
26/05:00pm - - - - - ESE 22 28 12 15 1017.3 - -
26/04:30pm - - - - - E 24 28 13 15 1017.1 - -
26/04:24pm - - - - - E 24 - 13 - - 1017.0 -
26/04:00pm - - - - - E 20 26 11 14 1017.1 - -
26/03:30pm - - - - - E 22 28 12 15 1017.1 - -
26/03:24pm - - - - - E 24 - 13 - - 1017.0 -
26/03:00pm - - - - - ESE 22 26 12 14 1017.1 - -
26/02:30pm - - - - - E 24 26 13 14 1017.4 - -
26/02:24pm - - - - - E 24 - 13 - - 1017.3 -
26/02:00pm - - - - - E 22 28 12 15 1017.5 - -
26/01:30pm - - - - - E 24 30 13 16 1017.8 - -
26/01:24pm - - - - - E 26 - 14 - - 1017.8 -
26/01:00pm - - - - - E 26 30 14 16 1018.2 - -
26/12:30pm - - - - - E 24 30 13 16 1018.5 - -
26/12:24pm - - - - - E 24 - 13 - - 1018.5 -
26/12:00pm - - - - - E 24 28 13 15 1018.9 - -
26/11:30am - - - - - E 24 28 13 15 1019.4 - -
26/11:24am - - - - - E 26 - 14 - - 1019.3 -
26/11:00am - - - - - E 28 33 15 18 1019.5 - -
26/10:30am - - - - - E 30 35 16 19 1019.7 - -
26/10:24am - - - - - E 30 - 16 - - 1019.7 -
26/10:00am - - - - - E 32 35 17 19 1020.0 - -
26/09:30am - - - - - ESE 30 35 16 19 1020.0 - -
26/09:24am - - - - - ESE 32 - 17 - - 1019.8 -
26/09:00am - - - - - ESE 30 35 16 19 1019.8 - -
26/08:30am - - - - - E 30 35 16 19 1019.5 - -
26/08:24am - - - - - E 30 - 16 - - 1019.3 -

Other Formats:

Comma delimited format used in spreadsheet applications
http://www.bom.gov.au/fwo/IDQ60801/IDQ60801.94290.axf

JavaScript Object Notation format (JSON) in row-major order
http://www.bom.gov.au/fwo/IDQ60801/IDQ60801.94290.json